Meteo Giornale » Osservazioni meteo Italia » Pratica Di Mare

ore: 01:55 - Osservazioni Meteo Pratica Di Mare
Lat. 41° 39' N Lon. 12° 27' E Alt. 6 metri s.l.m.

nebbia Europe/Rome

6 °C

Nebbia

Temp. 24 Ore

6 °C

18 °C

Nord

3.7 Km/h

Dew point 5 °C

Umidità 93 %

Visibilità  0.1 Km

Il sole sorge alle ore 06:03

Il sole tramonta alle ore 18:29

Data e Ora Cielo e Fenomeni T °C DP °C Um. % Pres. hPa Vis. km Vento km/h
Oggi h: 01:55 nebbia Nebbia 6 5 93 1020 0.1 N 3.7
Oggi h: 01:26 nebbia Nebbia 6 5 93 1020 0.1 N 3.7
Oggi h: 01:02 foschia Foschia 7 6 93 1020 1 N 5.5
Oggi h: 00:55 foschia Foschia 7 6 93 1020 5 N 3.7
Ieri h: 23:55 sereno Sereno 8 6 87 1020 8 N 3.7
Ieri h: 22:55 sereno Sereno 8 7 93 1020 10 N 5.5
Ieri h: 21:55 sereno Sereno 9 8 93 1020 10 N 5.5
Ieri h: 20:55 sereno Sereno 10 9 93 1020 10 N 5.5
Ieri h: 19:55 sereno Sereno 11 10 93 1020 10 N 1.8
Ieri h: 18:55 sereno Sereno 14 12 87 1020 10 O 9.3
Ieri h: 17:55 sereno Sereno 15 13 87 1020 10 O 13
Ieri h: 16:55 sereno Sereno 16 12 77 1020 10 O 13
Ieri h: 15:55 sereno Sereno 17 10 63 1020 10 O/SO 14.8
Ieri h: 14:55 sereno Sereno 18 10 59 1020 10 O/SO 13
Ieri h: 13:55 sereno Sereno 17 10 63 1021 10 S/SO 11.1
Ieri h: 12:55 sereno Sereno 17 11 67 1022 10 S/SO 13
Ieri h: 11:55 sereno Sereno 16 11 72 1022 10 S/SO 9.3
Ieri h: 10:55 sereno Sereno 16 11 72 1022 10 SO 13
Ieri h: 09:55 sereno Sereno 15 8 62 1022 10 S/SO 9.3
Ieri h: 07:55 sereno Sereno 10 4 66 1021 10 N 5.5
Ieri h: 06:55 sereno Sereno 6 1 70 1021 10 N/NE 11.1
Ieri h: 05:55 sereno Sereno 7 4 81 1021 10 N 5.5
Ieri h: 04:55 sereno Sereno 7 3 75 1021 10 NE 7.4
Ieri h: 03:55 sereno Sereno 7 3 75 1021 10 N 3.7